Time;durP1;ratioP1;P1;durP2;ratioP2;P2;SDS_P1;SDS_P2;PMS_P1;PMS_P2;Temp;Humidity;BMP_temperature;BMP_pressure;BME280_temperature;BME280_humidity;BME280_pressure;Samples;Min_cycle;Max_cycle;Signal;HPM_P1;HPM_P2
2021/10/03 00:00:50;;;;;;;112.70;66.40;;;;;;;8.72;81.40;101270.08;1661080;85;21110;-81
2021/10/03 00:03:23;;;;;;;121.97;66.30;;;;;;;8.71;81.31;101269.62;1661199;85;21074;-81
2021/10/03 00:05:52;;;;;;;113.47;67.03;;;;;;;8.69;81.26;101265.61;1661453;85;21098;-81
2021/10/03 00:08:19;;;;;;;108.05;62.73;;;;;;;8.66;81.32;101262.85;1661091;85;22319;-81
2021/10/03 00:10:46;;;;;;;100.97;62.20;;;;;;;8.63;81.36;101264.03;1661055;84;21089;-81
2021/10/03 00:13:13;;;;;;;93.82;60.75;;;;;;;8.61;81.50;101258.25;1660959;85;21578;-81
2021/10/03 00:15:40;;;;;;;92.92;58.83;;;;;;;8.61;81.59;101262.19;1660987;85;21012;-82
2021/10/03 00:18:07;;;;;;;96.45;59.48;;;;;;;8.60;81.50;101258.67;1661039;85;21830;-82
2021/10/03 00:20:35;;;;;;;95.92;60.12;;;;;;;8.55;81.37;101265.03;1661094;85;21773;-82
2021/10/03 00:23:04;;;;;;;97.82;60.80;;;;;;;8.53;81.45;101260.56;1661056;85;21070;-81
2021/10/03 00:25:32;;;;;;;93.92;60.40;;;;;;;8.50;81.52;101261.34;1660941;85;21090;-81
2021/10/03 00:28:00;;;;;;;93.17;60.30;;;;;;;8.49;81.48;101258.22;1660951;85;21094;-81
2021/10/03 00:30:27;;;;;;;91.05;61.10;;;;;;;8.48;81.56;101254.22;1660888;85;21102;-81
2021/10/03 00:32:53;;;;;;;86.12;57.93;;;;;;;8.45;81.48;101252.38;1661012;85;21740;-81
2021/10/03 00:35:20;;;;;;;87.12;56.85;;;;;;;8.40;81.49;101246.00;1660916;85;21121;-81
2021/10/03 00:37:47;;;;;;;86.82;56.77;;;;;;;8.38;81.47;101245.05;1661170;85;21078;-81
2021/10/03 00:40:13;;;;;;;76.60;53.50;;;;;;;8.37;81.53;101250.72;1661204;85;21074;-82
2021/10/03 00:42:40;;;;;;;74.07;52.30;;;;;;;8.37;81.65;101262.52;1661343;85;21118;-82
2021/10/03 00:45:08;;;;;;;67.78;48.60;;;;;;;8.37;81.63;101261.59;1661065;84;22416;-81
2021/10/03 00:47:35;;;;;;;60.12;44.73;;;;;;;8.37;81.64;101274.32;1660962;85;21097;-81
2021/10/03 00:50:01;;;;;;;59.83;46.35;;;;;;;8.37;81.75;101270.39;1660857;84;21145;-81
2021/10/03 00:52:28;;;;;;;62.53;46.88;;;;;;;8.37;81.75;101274.71;1660922;84;21126;-81
2021/10/03 00:54:55;;;;;;;65.28;47.43;;;;;;;8.35;81.71;101264.19;1660995;84;21117;-81
2021/10/03 00:57:22;;;;;;;64.87;47.62;;;;;;;8.34;81.67;101266.73;1661148;85;22568;-82
2021/10/03 00:59:48;;;;;;;69.92;49.53;;;;;;;8.32;81.66;101264.05;1661091;84;21027;-81
2021/10/03 01:02:15;;;;;;;71.80;49.20;;;;;;;8.33;81.74;101269.78;1661072;85;21082;-81
2021/10/03 01:04:42;;;;;;;75.50;49.25;;;;;;;8.36;81.87;101267.69;1661060;85;21603;-81
2021/10/03 01:07:08;;;;;;;73.22;50.00;;;;;;;8.41;81.90;101270.10;1661005;85;21127;-81
2021/10/03 01:09:35;;;;;;;70.25;49.58;;;;;;;8.43;81.84;101273.72;1661261;86;21782;-81
2021/10/03 01:12:02;;;;;;;75.52;51.90;;;;;;;8.45;81.95;101275.10;1660946;84;21576;-81
2021/10/03 01:14:28;;;;;;;77.47;50.73;;;;;;;8.48;82.02;101268.22;1661025;84;21194;-81
2021/10/03 01:16:55;;;;;;;65.28;48.02;;;;;;;8.51;82.05;101266.16;1661080;84;21094;-81
2021/10/03 01:19:25;;;;;;;66.15;48.08;;;;;;;8.50;81.83;101260.03;1660933;84;21162;-81
2021/10/03 01:21:52;;;;;;;68.20;49.03;;;;;;;8.47;81.72;101253.76;1660968;85;22597;-81
2021/10/03 01:24:21;;;;;;;73.52;51.92;;;;;;;8.50;81.75;101253.47;1661045;84;21070;-81
2021/10/03 01:26:48;;;;;;;73.12;48.58;;;;;;;8.52;81.79;101247.87;1661193;85;21624;-81
2021/10/03 01:29:15;;;;;;;73.67;50.65;;;;;;;8.56;81.84;101248.89;1661140;85;21179;-81
2021/10/03 01:31:41;;;;;;;69.45;49.65;;;;;;;8.60;81.85;101249.91;1661348;84;21074;-81
2021/10/03 01:34:08;;;;;;;79.75;52.20;;;;;;;8.63;81.76;101252.22;1661281;85;21706;-81
2021/10/03 01:36:36;;;;;;;74.10;52.62;;;;;;;8.62;81.64;101241.27;1661327;85;21070;-81
2021/10/03 01:39:02;;;;;;;75.08;50.75;;;;;;;8.63;81.67;101246.97;1661035;85;21027;-81
2021/10/03 01:41:30;;;;;;;72.90;49.80;;;;;;;8.64;81.70;101247.47;1660941;85;21094;-81
2021/10/03 01:43:57;;;;;;;66.85;49.85;;;;;;;8.63;81.60;101241.72;1661045;85;21110;-81
2021/10/03 01:46:23;;;;;;;69.53;47.95;;;;;;;8.61;81.43;101233.31;1661047;85;21743;-81
2021/10/03 01:48:50;;;;;;;69.90;45.23;;;;;;;8.59;81.31;101220.56;1664219;84;21165;-81
2021/10/03 01:51:17;;;;;;;72.30;47.25;;;;;;;8.59;81.36;101228.42;1684940;84;21074;-81
2021/10/03 01:53:53;;;;;;;66.60;47.30;;;;;;;8.58;81.45;101227.55;1685176;84;21122;-81
2021/10/03 01:56:20;;;;;;;70.45;45.75;;;;;;;8.59;81.43;101219.24;1685352;84;21129;-81
2021/10/03 01:58:51;;;;;;;65.72;44.90;;;;;;;8.56;81.45;101218.29;1685146;84;21403;-81
2021/10/03 02:01:25;;;;;;;61.28;44.20;;;;;;;8.58;81.57;101210.48;1685346;85;21137;-82
2021/10/03 02:03:54;;;;;;;58.70;42.58;;;;;;;8.61;81.69;101218.89;1685453;84;21587;-81
2021/10/03 02:06:20;;;;;;;70.17;45.95;;;;;;;8.64;81.71;101215.97;1685083;83;21152;-81
2021/10/03 02:08:55;;;;;;;67.95;45.43;;;;;;;8.63;81.73;101215.48;1685333;85;21206;-81
2021/10/03 02:11:23;;;;;;;56.08;41.42;;;;;;;8.68;81.78;101214.38;1685558;84;21774;-81
2021/10/03 02:13:50;;;;;;;55.98;39.83;;;;;;;8.68;81.70;101212.63;1685426;84;21039;-81
2021/10/03 02:16:17;;;;;;;50.23;38.53;;;;;;;8.68;81.80;101210.01;1685327;84;21061;-81
2021/10/03 02:18:47;;;;;;;53.10;38.88;;;;;;;8.68;81.70;101213.06;1685463;84;21189;-81
2021/10/03 02:21:14;;;;;;;49.10;36.45;;;;;;;8.65;81.81;101204.66;1685429;84;21098;-81
2021/10/03 02:23:41;;;;;;;50.28;37.53;;;;;;;8.67;81.81;101214.80;1685376;84;21773;-81
2021/10/03 02:26:08;;;;;;;49.20;37.30;;;;;;;8.65;81.84;101215.55;1685477;84;21535;-81
2021/10/03 02:28:35;;;;;;;50.15;37.75;;;;;;;8.65;81.87;101220.41;1685432;84;21085;-81
2021/10/03 02:31:07;;;;;;;55.30;38.38;;;;;;;8.63;81.85;101210.66;1685427;85;21167;-82
2021/10/03 02:33:36;;;;;;;57.00;39.87;;;;;;;8.63;81.91;101215.48;1685804;84;22256;-82
2021/10/03 02:36:04;;;;;;;51.25;37.85;;;;;;;8.63;81.93;101223.78;1685407;83;21773;-81
2021/10/03 02:38:31;;;;;;;50.35;38.00;;;;;;;8.63;81.99;101215.48;1685061;84;21149;-81
2021/10/03 02:40:58;;;;;;;53.80;38.30;;;;;;;8.64;82.07;101218.59;1685181;84;21113;-82
2021/10/03 02:43:26;;;;;;;49.88;37.33;;;;;;;8.68;82.13;101220.50;1685015;83;21161;-82
2021/10/03 02:45:53;;;;;;;50.63;38.15;;;;;;;8.70;82.15;101221.45;1685091;83;21105;-82
2021/10/03 02:48:21;;;;;;;50.63;39.00;;;;;;;8.74;82.19;101226.41;1685043;83;22556;-82
2021/10/03 02:50:48;;;;;;;52.53;39.23;;;;;;;8.69;82.27;101198.69;1684696;83;22074;-81
2021/10/03 02:53:16;;;;;;;52.48;38.40;;;;;;;8.82;82.39;101213.20;1684712;84;21173;-82
2021/10/03 02:55:43;;;;;;;48.55;37.25;;;;;;;8.86;82.47;101211.56;1657877;85;21373;-82
2021/10/03 02:58:09;;;;;;;50.23;38.13;;;;;;;8.90;82.48;101203.00;1685266;83;21160;-82
2021/10/03 03:00:39;;;;;;;51.00;37.63;;;;;;;8.93;82.50;101207.03;1685127;84;21798;-82
2021/10/03 03:03:05;;;;;;;52.25;36.58;;;;;;;8.95;82.51;101208.91;1685068;83;21098;-81
2021/10/03 03:05:33;;;;;;;50.40;36.95;;;;;;;8.99;82.51;101212.55;1685092;84;21137;-82
2021/10/03 03:08:00;;;;;;;50.78;36.15;;;;;;;9.01;82.64;101205.63;1685212;84;21089;-82
2021/10/03 03:10:27;;;;;;;47.48;35.03;;;;;;;9.05;82.71;101199.64;1685635;83;21089;-82
2021/10/03 03:12:53;;;;;;;49.63;35.43;;;;;;;9.09;82.80;101201.55;1685510;83;22417;-82
2021/10/03 03:15:20;;;;;;;46.73;35.48;;;;;;;9.12;82.93;101195.50;1685511;84;21081;-81
2021/10/03 03:17:47;;;;;;;50.40;35.43;;;;;;;9.15;83.02;101193.00;1685480;84;21586;-82
2021/10/03 03:20:13;;;;;;;49.38;35.13;;;;;;;9.21;83.12;101188.40;1685664;83;21575;-82
2021/10/03 03:22:40;;;;;;;51.83;36.98;;;;;;;9.20;83.06;101176.13;1685606;83;21089;-82
2021/10/03 03:25:10;;;;;;;46.50;35.68;;;;;;;9.25;83.11;101179.80;1685723;83;22417;-82
2021/10/03 03:27:36;;;;;;;49.98;35.92;;;;;;;9.29;83.24;101181.69;1685670;83;21061;-81
2021/10/03 03:30:04;;;;;;;51.60;36.10;;;;;;;9.31;83.27;101179.61;1685604;84;21172;-81
2021/10/03 03:32:31;;;;;;;48.50;35.52;;;;;;;9.34;83.25;101182.77;1685401;84;21552;-81
2021/10/03 03:34:58;;;;;;;47.30;34.78;;;;;;;9.38;83.33;101175.89;1685561;84;21090;-81
2021/10/03 03:37:25;;;;;;;44.53;33.53;;;;;;;9.42;83.35;101172.53;1685567;84;21756;-81
2021/10/03 03:39:51;;;;;;;46.53;34.35;;;;;;;9.46;83.47;101172.72;1685500;84;21120;-81
2021/10/03 03:42:18;;;;;;;46.05;33.60;;;;;;;9.52;83.59;101168.10;1685570;83;21117;-81
2021/10/03 03:44:44;;;;;;;44.00;34.10;;;;;;;9.58;83.66;101168.31;1685621;84;21158;-81
2021/10/03 03:47:11;;;;;;;47.50;32.25;;;;;;;9.62;83.65;101159.69;1685675;84;21070;-82
2021/10/03 03:49:38;;;;;;;44.85;32.88;;;;;;;9.65;83.61;101163.75;1685421;84;21750;-81
2021/10/03 03:52:06;;;;;;;43.13;32.30;;;;;;;9.70;83.73;101169.16;1685266;83;21138;-81
2021/10/03 03:54:33;;;;;;;42.45;32.00;;;;;;;9.75;83.74;101166.70;1685435;84;21105;-81
2021/10/03 03:56:59;;;;;;;46.42;31.75;;;;;;;9.78;83.72;101166.79;1685572;83;21077;-81
2021/10/03 03:59:26;;;;;;;41.30;31.30;;;;;;;9.81;83.76;101173.48;1685512;84;21085;-81
2021/10/03 04:01:53;;;;;;;37.65;29.57;;;;;;;9.84;83.78;101185.00;1685569;83;22568;-82
2021/10/03 04:04:20;;;;;;;42.03;29.80;;;;;;;9.85;83.75;101189.44;1685472;84;21130;-81
2021/10/03 04:06:46;;;;;;;43.25;31.27;;;;;;;9.88;83.74;101186.89;1685425;85;21085;-82
2021/10/03 04:09:13;;;;;;;38.95;29.87;;;;;;;9.90;83.72;101189.58;1685480;83;21093;-82
2021/10/03 04:11:40;;;;;;;45.60;30.20;;;;;;;9.91;83.71;101185.70;1685553;84;21081;-82
2021/10/03 04:14:06;;;;;;;40.58;29.10;;;;;;;9.94;83.72;101190.16;1685755;83;21736;-81
2021/10/03 04:16:33;;;;;;;36.98;27.67;;;;;;;9.96;83.66;101192.84;1685367;83;21563;-82
2021/10/03 04:19:00;;;;;;;36.77;27.85;;;;;;;9.97;83.63;101193.33;1685602;84;21078;-82
2021/10/03 04:21:27;;;;;;;36.95;27.82;;;;;;;9.96;83.52;101184.52;1685592;84;21230;-82
2021/10/03 04:23:53;;;;;;;37.73;26.57;;;;;;;9.98;83.59;101183.27;1685677;84;21105;-82
2021/10/03 04:26:20;;;;;;;35.20;26.07;;;;;;;9.99;83.55;101187.70;1685719;84;21851;-81
2021/10/03 04:28:47;;;;;;;31.65;26.48;;;;;;;9.98;83.51;101181.95;1685492;84;21082;-82
2021/10/03 04:31:13;;;;;;;36.08;26.48;;;;;;;9.97;83.46;101179.75;1685615;84;21047;-82
2021/10/03 04:33:43;;;;;;;34.18;26.90;;;;;;;9.95;83.48;101185.38;1685567;84;21105;-82
2021/10/03 04:36:10;;;;;;;31.42;25.97;;;;;;;9.94;83.45;101191.47;1685668;83;21117;-82
2021/10/03 04:38:38;;;;;;;38.58;26.62;;;;;;;9.91;83.37;101188.33;1685388;83;21803;-82
2021/10/03 04:41:04;;;;;;;30.45;25.45;;;;;;;9.89;83.35;101191.33;1685501;84;21606;-81
2021/10/03 04:43:31;;;;;;;40.20;26.90;;;;;;;9.88;83.36;101187.32;1685692;84;21611;-82
2021/10/03 04:45:58;;;;;;;34.48;26.73;;;;;;;9.88;83.41;101185.58;1685692;84;21078;-82
2021/10/03 04:48:25;;;;;;;32.70;25.10;;;;;;;9.88;83.39;101195.21;1685693;83;21145;-82
2021/10/03 04:50:51;;;;;;;35.10;25.55;;;;;;;9.88;83.42;101188.20;1685429;84;22604;-82
2021/10/03 04:53:18;;;;;;;35.03;26.05;;;;;;;9.89;83.49;101191.72;1657748;85;21603;-82
2021/10/03 04:55:45;;;;;;;34.60;24.85;;;;;;;9.89;83.44;101196.58;1685685;83;21733;-82
2021/10/03 04:58:12;;;;;;;37.95;27.70;;;;;;;9.91;83.50;101190.07;1685764;84;21101;-83
2021/10/03 05:00:38;;;;;;;36.08;26.70;;;;;;;9.95;83.53;101189.73;1685581;84;21192;-82
2021/10/03 05:03:05;;;;;;;33.58;25.40;;;;;;;9.98;83.51;101187.22;1685632;84;21917;-82
2021/10/03 05:05:32;;;;;;;38.17;24.82;;;;;;;9.99;83.37;101182.44;1685608;84;21082;-82
2021/10/03 05:07:59;;;;;;;35.23;25.52;;;;;;;9.98;83.31;101189.84;1685734;83;21031;-82
2021/10/03 05:10:25;;;;;;;32.13;24.40;;;;;;;9.96;83.25;101181.89;1685713;83;21066;-82
2021/10/03 05:12:52;;;;;;;33.70;25.10;;;;;;;9.96;83.28;101184.95;1685866;83;21199;-82
2021/10/03 05:15:19;;;;;;;38.65;25.20;;;;;;;9.94;83.24;101190.16;1685899;83;21813;-81
2021/10/03 05:17:45;;;;;;;34.48;25.02;;;;;;;9.96;83.34;101183.21;1685905;84;21086;-81
2021/10/03 05:20:12;;;;;;;36.00;25.55;;;;;;;9.96;83.24;101183.21;1685646;84;21145;-81
2021/10/03 05:22:39;;;;;;;31.35;25.27;;;;;;;9.98;83.30;101185.47;1685764;84;21054;-82
2021/10/03 05:25:08;;;;;;;32.88;24.02;;;;;;;10.00;83.22;101186.84;1685876;83;21121;-82
2021/10/03 05:27:34;;;;;;;30.72;24.12;;;;;;;10.01;83.31;101182.95;1685721;84;22486;-82
2021/10/03 05:30:01;;;;;;;31.97;23.67;;;;;;;10.03;83.21;101192.22;1685776;83;21062;-82
2021/10/03 05:32:28;;;;;;;29.23;23.15;;;;;;;10.08;83.29;101188.02;1685784;84;21101;-82
2021/10/03 05:34:55;;;;;;;31.37;24.10;;;;;;;10.12;83.21;101193.42;1685797;84;21141;-82
2021/10/03 05:37:21;;;;;;;33.18;23.07;;;;;;;10.18;83.27;101187.91;1685663;84;21101;-82
2021/10/03 05:39:48;;;;;;;28.77;22.48;;;;;;;10.25;83.29;101190.78;1685685;83;22630;-82
2021/10/03 05:42:15;;;;;;;30.23;24.05;;;;;;;10.35;83.30;101192.44;1685290;84;21144;-82
2021/10/03 05:44:42;;;;;;;32.63;24.20;;;;;;;10.46;83.37;101194.57;1685637;85;21079;-82
2021/10/03 05:47:09;;;;;;;30.08;22.93;;;;;;;10.62;83.47;101193.34;1685627;84;21105;-82
2021/10/03 05:49:35;;;;;;;34.20;24.15;;;;;;;10.83;83.61;101192.20;1685397;83;21085;-82
2021/10/03 05:52:02;;;;;;;36.25;23.60;;;;;;;11.03;83.51;101184.91;1663794;84;21768;-82
2021/10/03 05:54:29;;;;;;;32.83;23.60;;;;;;;11.21;83.40;101197.33;1660842;85;21105;-82
2021/10/03 05:56:56;;;;;;;32.73;23.12;;;;;;;11.39;83.18;101199.62;1661093;85;21338;-82
2021/10/03 05:59:22;;;;;;;27.93;22.50;;;;;;;11.54;83.03;101199.56;1661049;85;21552;-82
2021/10/03 06:01:49;;;;;;;31.52;23.25;;;;;;;11.70;82.87;101201.79;1661204;85;21062;-82
2021/10/03 06:04:16;;;;;;;27.82;21.37;;;;;;;11.85;82.71;101202.20;1661214;84;22592;-82
2021/10/03 06:06:42;;;;;;;29.00;21.77;;;;;;;12.02;82.50;101201.80;1661232;85;21078;-82
2021/10/03 06:09:09;;;;;;;27.30;21.35;;;;;;;12.13;82.25;101201.65;1661124;85;21686;-82
2021/10/03 06:11:36;;;;;;;37.17;21.62;;;;;;;12.22;81.95;101197.93;1661148;84;21113;-82
2021/10/03 06:14:04;;;;;;;54.45;37.42;;;;;;;12.28;81.62;101199.83;1661194;84;21097;-82
2021/10/03 06:16:31;;;;;;;80.47;55.35;;;;;;;12.32;81.37;101196.84;1661029;85;21447;-82
2021/10/03 06:18:57;;;;;;;38.85;28.35;;;;;;;12.33;81.11;101196.89;1661002;85;21077;-82
2021/10/03 06:21:25;;;;;;;29.30;21.65;;;;;;;12.35;80.98;101195.17;1661198;85;21603;-82
2021/10/03 06:23:53;;;;;;;41.25;29.80;;;;;;;12.38;80.79;101200.51;1661061;85;21138;-82
2021/10/03 06:26:20;;;;;;;28.20;21.17;;;;;;;12.41;80.72;101199.72;1661177;85;21150;-82
2021/10/03 06:28:47;;;;;;;26.55;19.73;;;;;;;12.48;80.65;101196.78;1661184;85;21752;-82
2021/10/03 06:31:13;;;;;;;24.10;19.55;;;;;;;12.54;80.56;101195.20;1660952;85;21364;-82
2021/10/03 06:33:40;;;;;;;28.83;19.50;;;;;;;12.64;80.42;101194.55;1661083;85;21786;-81
2021/10/03 06:36:07;;;;;;;26.12;18.80;;;;;;;12.78;80.41;101195.29;1661080;84;21185;-82
2021/10/03 06:38:34;;;;;;;25.97;18.20;;;;;;;12.94;80.36;101197.87;1661097;84;21113;-82
2021/10/03 06:41:01;;;;;;;21.97;17.67;;;;;;;13.10;80.25;101196.44;1661145;84;21748;-82
2021/10/03 06:43:29;;;;;;;24.43;17.62;;;;;;;13.25;80.02;101199.84;1661013;85;21726;-82
2021/10/03 06:45:56;;;;;;;29.80;21.50;;;;;;;13.36;79.86;101194.39;1661025;85;21074;-82
2021/10/03 06:48:24;;;;;;;23.32;18.85;;;;;;;13.48;79.57;101201.70;1661027;85;21630;-81
2021/10/03 06:50:51;;;;;;;23.52;18.40;;;;;;;13.52;79.22;101203.55;1660992;84;21113;-81
2021/10/03 06:53:17;;;;;;;21.77;17.10;;;;;;;13.53;78.98;101207.95;1661030;85;21796;-81
2021/10/03 06:55:44;;;;;;;26.25;16.62;;;;;;;13.53;78.68;101203.58;1660730;84;21149;-82
2021/10/03 06:58:11;;;;;;;37.30;26.52;;;;;;;13.54;78.56;101215.92;1661059;85;21242;-81
2021/10/03 07:00:38;;;;;;;25.95;18.82;;;;;;;13.58;78.49;101210.27;1660950;85;21583;-81
2021/10/03 07:03:04;;;;;;;26.80;19.65;;;;;;;13.60;78.31;101217.36;1661078;85;21352;-81
2021/10/03 07:05:31;;;;;;;30.68;22.07;;;;;;;13.63;78.23;101217.88;1660915;84;21209;-81
2021/10/03 07:07:57;;;;;;;23.75;16.60;;;;;;;13.68;78.19;101211.34;1660944;84;21233;-83
2021/10/03 07:10:24;;;;;;;22.50;16.48;;;;;;;13.74;77.98;101214.09;1660936;85;21062;-81
2021/10/03 07:12:51;;;;;;;21.57;15.93;;;;;;;13.80;77.80;101216.44;1661034;85;21094;-83
2021/10/03 07:15:18;;;;;;;24.92;19.12;;;;;;;13.87;77.55;101219.20;1660854;85;21134;-83
2021/10/03 07:17:44;;;;;;;28.65;19.45;;;;;;;13.93;77.42;101225.95;1660975;86;22606;-83
2021/10/03 07:20:11;;;;;;;25.72;18.02;;;;;;;14.01;77.31;101221.68;1660990;85;21086;-80
2021/10/03 07:22:38;;;;;;;25.17;16.90;;;;;;;14.03;76.80;101221.27;1661017;85;21065;-83
2021/10/03 07:25:06;;;;;;;18.02;14.43;;;;;;;13.99;76.55;101219.44;1661035;84;21156;-81
2021/10/03 07:27:33;;;;;;;21.37;16.42;;;;;;;13.98;76.30;101228.23;1661079;84;21543;-81
2021/10/03 07:30:00;;;;;;;24.95;17.50;;;;;;;13.93;76.11;101226.84;1661153;85;21760;-81
2021/10/03 07:32:26;;;;;;;33.50;19.15;;;;;;;13.96;76.28;101222.02;1661070;86;21066;-81
2021/10/03 07:34:54;;;;;;;31.20;19.23;;;;;;;14.03;76.24;101221.72;1661029;84;21154;-81
2021/10/03 07:37:20;;;;;;;28.42;17.37;;;;;;;14.11;76.30;101212.14;1661094;85;21726;-81
2021/10/03 07:39:47;;;;;;;21.97;16.00;;;;;;;14.18;76.20;101218.89;1661034;85;21101;-81
2021/10/03 07:42:14;;;;;;;20.40;14.80;;;;;;;14.25;75.94;101217.70;1661173;85;22567;-81
2021/10/03 07:44:41;;;;;;;22.90;15.95;;;;;;;14.31;75.87;101213.83;1661127;85;21043;-81
2021/10/03 07:47:07;;;;;;;23.35;16.20;;;;;;;14.38;75.80;101205.12;1661144;85;21177;-81
2021/10/03 07:49:34;;;;;;;22.70;14.95;;;;;;;14.44;75.59;101203.89;1661116;85;21090;-83
2021/10/03 07:52:01;;;;;;;23.77;16.73;;;;;;;14.38;75.34;101188.80;1661052;85;21055;-82
2021/10/03 07:54:28;;;;;;;22.82;14.98;;;;;;;14.51;75.19;101199.60;1661022;85;21810;-81
2021/10/03 07:56:55;;;;;;;25.50;16.85;;;;;;;14.55;74.92;101202.31;1661190;85;21110;-83
2021/10/03 07:59:21;;;;;;;21.87;15.05;;;;;;;14.62;74.96;101202.44;1661116;85;21181;-81
2021/10/03 08:01:48;;;;;;;27.87;21.05;;;;;;;14.71;74.84;101206.11;1661165;85;21124;-81
2021/10/03 08:04:15;;;;;;;21.20;14.30;;;;;;;14.82;74.74;101211.58;1661165;84;21085;-81
2021/10/03 08:06:42;;;;;;;17.27;13.28;;;;;;;14.93;74.55;101211.30;1661190;84;21897;-81
2021/10/03 08:09:08;;;;;;;16.32;12.47;;;;;;;15.01;74.25;101208.76;1660962;85;21121;-81
2021/10/03 08:11:35;;;;;;;18.85;12.98;;;;;;;15.02;73.85;101207.02;1660869;85;21097;-81
2021/10/03 08:14:02;;;;;;;21.97;14.00;;;;;;;15.04;73.71;101212.79;1661008;84;21039;-81
2021/10/03 08:16:32;;;;;;;16.60;12.73;;;;;;;15.07;73.54;101203.56;1660998;85;21113;-81
2021/10/03 08:18:58;;;;;;;23.75;14.98;;;;;;;15.13;73.63;101200.11;1660749;84;21798;-80
2021/10/03 08:21:26;;;;;;;23.25;14.25;;;;;;;15.21;73.48;101199.76;1660893;85;21191;-81
2021/10/03 08:23:53;;;;;;;17.48;13.32;;;;;;;15.26;73.33;101203.37;1649332;85;21164;-81
2021/10/03 08:26:20;;;;;;;19.42;14.60;;;;;;;15.31;73.10;101206.07;1660930;84;21078;-81
2021/10/03 08:28:47;;;;;;;18.92;14.28;;;;;;;15.36;73.14;101201.27;1661069;84;21097;-81
2021/10/03 08:31:13;;;;;;;19.67;14.03;;;;;;;15.43;72.92;101209.30;1661063;85;22582;-81
2021/10/03 08:33:40;;;;;;;21.17;12.95;;;;;;;15.46;72.63;101208.02;1660881;85;21067;-81
2021/10/03 08:36:06;;;;;;;16.50;12.70;;;;;;;15.44;72.39;101200.05;1661010;84;21102;-81
2021/10/03 08:38:33;;;;;;;14.40;11.25;;;;;;;15.43;72.08;101196.04;1661098;85;21113;-81
2021/10/03 08:41:01;;;;;;;13.15;10.38;;;;;;;15.38;71.83;101193.79;1661146;85;21078;-81
2021/10/03 08:43:29;;;;;;;20.82;11.33;;;;;;;15.36;71.75;101185.36;1661105;85;22598;-81
2021/10/03 08:45:57;;;;;;;13.45;11.60;;;;;;;15.34;71.56;101188.88;1660973;85;21190;-81
2021/10/03 08:48:24;;;;;;;19.87;11.53;;;;;;;15.30;71.40;101188.39;1649589;85;21059;-81
2021/10/03 08:50:51;;;;;;;18.85;11.12;;;;;;;15.24;71.27;101184.31;1660831;85;21099;-81
2021/10/03 08:53:19;;;;;;;18.20;11.40;;;;;;;15.15;71.11;101183.34;1660616;84;21309;-81
2021/10/03 08:55:46;;;;;;;18.70;12.23;;;;;;;15.10;71.19;101185.47;1661070;85;22781;-81
2021/10/03 08:58:13;;;;;;;15.58;10.93;;;;;;;15.08;71.20;101181.47;1661202;85;21109;-82
2021/10/03 09:00:49;;;;;;;17.85;12.40;;;;;;;15.07;71.12;101178.38;1661108;85;21105;-81
2021/10/03 09:03:17;;;;;;;23.85;11.75;;;;;;;15.11;71.00;101178.87;1661078;85;21086;-81
2021/10/03 09:05:51;;;;;;;18.75;9.93;;;;;;;15.17;71.12;101180.70;1661189;85;21096;-81
2021/10/03 09:08:23;;;;;;;19.55;11.50;;;;;;;15.25;71.08;101174.17;1660948;85;21769;-81
2021/10/03 09:11:09;;;;;;;16.57;9.85;;;;;;;15.33;70.97;101176.06;1661189;84;21085;-81
2021/10/03 09:13:41;;;;;;;12.85;10.15;;;;;;;15.44;71.04;101167.33;1661048;85;21074;-81
2021/10/03 09:16:18;;;;;;;20.02;15.48;;;;;;;15.58;70.83;101172.78;1660879;84;21145;-81
2021/10/03 09:18:54;;;;;;;19.82;13.28;;;;;;;15.69;70.79;101176.03;1660853;85;21160;-82
2021/10/03 09:21:38;;;;;;;15.45;11.68;;;;;;;15.80;70.53;101181.91;1660906;84;21926;-81
2021/10/03 09:24:12;;;;;;;18.00;11.73;;;;;;;15.92;70.47;101172.75;1660802;84;21090;-80
2021/10/03 09:26:52;;;;;;;15.00;10.48;;;;;;;16.04;70.38;101171.52;1660823;84;21082;-81
2021/10/03 09:29:32;;;;;;;13.53;9.50;;;;;;;16.13;70.11;101170.28;1658624;83;21317;-81
2021/10/03 09:32:18;;;;;;;15.68;9.60;;;;;;;16.25;69.80;101167.28;1660819;84;21144;-81
2021/10/03 09:34:50;;;;;;;16.77;10.50;;;;;;;16.33;69.54;101161.16;1660757;85;21723;-81
2021/10/03 09:37:27;;;;;;;17.95;9.95;;;;;;;16.43;69.20;101154.59;1660778;85;21113;-81
2021/10/03 09:40:15;;;;;;;15.60;9.68;;;;;;;16.51;69.06;101146.23;1660837;84;21094;-81
2021/10/03 09:43:03;;;;;;;13.85;10.50;;;;;;;16.61;68.97;101141.44;1660764;84;21246;-81
2021/10/03 09:45:32;;;;;;;11.80;8.68;;;;;;;16.72;68.55;101148.13;1660879;85;21117;-82
2021/10/03 09:48:07;;;;;;;15.05;9.55;;;;;;;16.78;68.42;101140.62;1660852;83;22494;-82
2021/10/03 09:50:40;;;;;;;16.62;9.73;;;;;;;16.91;68.32;101142.50;1660876;85;21066;-81
2021/10/03 09:53:07;;;;;;;12.15;8.78;;;;;;;17.02;68.07;101143.44;1678853;84;21077;-81
2021/10/03 09:55:34;;;;;;;16.77;8.23;;;;;;;17.12;67.93;101147.06;1685639;83;21128;-81
2021/10/03 09:58:02;;;;;;;13.40;8.70;;;;;;;17.25;67.86;101137.36;1685712;84;21145;-81
2021/10/03 10:00:29;;;;;;;17.85;10.08;;;;;;;17.38;67.52;101140.52;1685666;83;21723;-81
2021/10/03 10:02:55;;;;;;;20.32;12.98;;;;;;;17.53;67.41;101135.68;1685575;83;21590;-81
2021/10/03 10:05:25;;;;;;;17.32;9.48;;;;;;;17.70;67.33;101130.39;1685583;83;21598;-81
2021/10/03 10:07:52;;;;;;;18.70;10.93;;;;;;;17.89;67.02;101124.67;1685367;83;21081;-81
2021/10/03 10:10:19;;;;;;;20.88;11.35;;;;;;;18.11;66.64;101126.00;1685603;83;21133;-82
2021/10/03 10:13:00;;;;;;;15.75;8.45;;;;;;;18.33;66.22;101133.09;1658126;85;21767;-81
2021/10/03 10:15:26;;;;;;;14.20;8.65;;;;;;;18.58;65.93;101121.97;1685429;84;22239;-81
2021/10/03 10:17:53;;;;;;;13.18;8.63;;;;;;;18.85;65.45;101125.48;1685468;85;21127;-81
2021/10/03 10:20:31;;;;;;;14.78;8.43;;;;;;;19.09;65.03;101128.52;1685691;83;21556;-82
2021/10/03 10:23:10;;;;;;;14.47;8.98;;;;;;;19.33;64.51;101127.94;1685715;83;21136;-82
2021/10/03 10:25:55;;;;;;;14.35;8.48;;;;;;;19.57;64.07;101131.80;1685570;84;22788;-82
2021/10/03 10:28:36;;;;;;;12.03;9.00;;;;;;;19.80;63.51;101121.45;1685526;83;21074;-82
2021/10/03 10:31:17;;;;;;;11.20;8.78;;;;;;;20.00;63.22;101134.21;1685913;83;21034;-82
2021/10/03 10:34:01;;;;;;;11.38;8.65;;;;;;;20.21;62.89;101132.27;1685499;85;21167;-82
2021/10/03 10:36:52;;;;;;;12.50;8.15;;;;;;;20.38;62.33;101141.47;1685647;84;21097;-82
2021/10/03 10:39:21;;;;;;;13.60;7.75;;;;;;;20.52;61.82;101142.23;1685567;84;21768;-87
2021/10/03 10:41:58;;;;;;;13.70;8.20;;;;;;;20.65;61.22;101143.50;1683619;83;21102;-81
2021/10/03 10:44:30;;;;;;;11.90;7.78;;;;;;;20.76;60.89;101135.78;1680984;85;21128;-81
2021/10/03 10:46:59;;;;;;;11.78;8.80;;;;;;;20.86;60.37;101137.02;1680444;85;21113;-81
2021/10/03 10:49:30;;;;;;;15.75;7.72;;;;;;;20.89;59.88;101133.86;1647975;86;21153;-85
2021/10/03 10:52:22;;;;;;;13.08;8.93;;;;;;;20.96;59.63;101135.99;1679960;85;21790;-82
2021/10/03 10:55:21;;;;;;;13.55;9.70;;;;;;;21.10;58.80;101119.33;1672467;84;21589;-80
2021/10/03 10:58:05;;;;;;;17.87;13.75;;;;;;;21.10;58.80;101119.33;1674151;84;21110;-88
2021/10/03 11:00:32;;;;;;;12.85;6.92;;;;;;;21.13;58.68;101130.44;1674146;84;21062;-84
2021/10/03 11:03:01;;;;;;;12.00;7.45;;;;;;;21.08;57.98;101118.46;1673909;84;21095;-86
2021/10/03 11:05:44;;;;;;;12.25;7.42;;;;;;;21.08;57.98;101118.46;1673726;84;21775;-86
2021/10/03 11:08:17;;;;;;;10.88;7.83;;;;;;;21.05;57.94;101113.59;1673693;84;21102;-86
2021/10/03 11:11:09;;;;;;;11.80;6.92;;;;;;;20.95;57.49;101124.41;1677398;84;21151;-84
2021/10/03 11:13:48;;;;;;;8.78;7.33;;;;;;;20.84;57.32;101114.75;1677840;85;21287;-86
2021/10/03 11:16:36;;;;;;;13.20;7.47;;;;;;;20.70;57.13;101108.20;1666529;86;21085;-86
2021/10/03 11:19:14;;;;;;;13.15;7.60;;;;;;;20.59;56.86;101118.55;1680876;85;21750;-86
2021/10/03 11:21:47;;;;;;;12.63;7.30;;;;;;;20.50;56.89;101117.76;1692514;83;21143;-87